Air Navigation Services of Czech Republic
Airport: LKNA Updated:  21.07.2024 01:59:38  UTC
 METAR LKNA 21.07. 02:00 ...
METAR LKNA 210200Z 29005KT CAVOK 15/13 Q1011 RMK BLACK=
 TAF LKNA 20.07. 23:00 ...
TAF LKNA 202300Z 2100/2200 35004KT CAVOK      BECMG 2114/2116 VRB02KT=